Time;durP1;ratioP1;P1;durP2;ratioP2;P2;SDS_P1;SDS_P2;PMS_P1;PMS_P2;Temp;Humidity;BMP_temperature;BMP_pressure;BME280_temperature;BME280_humidity;BME280_pressure;Samples;Min_cycle;Max_cycle;Signal;HPM_P1;HPM_P2
2023/08/26 00:00:46;;;;;;;11.45;8.02;;;;;;;;;;5018109;28;20037;-73
2023/08/26 00:03:13;;;;;;;11.82;8.70;;;;;;;;;;5021515;28;20028;-73
2023/08/26 00:05:39;;;;;;;11.27;8.25;;;;;;;;;;5022119;28;20060;-73
2023/08/26 00:08:04;;;;;;;11.73;8.13;;;;;;;;;;5018512;28;20431;-73
2023/08/26 00:10:29;;;;;;;12.70;8.68;;;;;;;;;;5023004;28;20090;-73
2023/08/26 00:12:55;;;;;;;11.15;8.82;;;;;;;;;;5017805;28;20514;-73
2023/08/26 00:15:20;;;;;;;10.63;8.60;;;;;;;;;;5022594;28;20021;-73
2023/08/26 00:17:46;;;;;;;13.20;9.15;;;;;;;;;;5022154;28;20033;-73
2023/08/26 00:20:11;;;;;;;10.02;9.02;;;;;;;;;;5022592;28;20268;-73
2023/08/26 00:22:37;;;;;;;16.02;9.52;;;;;;;;;;5003802;28;20064;-73
2023/08/26 00:25:03;;;;;;;14.18;8.07;;;;;;;;;;5018411;28;20041;-74
2023/08/26 00:27:28;;;;;;;10.73;7.90;;;;;;;;;;4999765;28;20046;-76
2023/08/26 00:29:54;;;;;;;12.23;8.07;;;;;;;;;;5019929;28;20109;-73
2023/08/26 00:32:19;;;;;;;12.65;6.90;;;;;;;;;;5018294;28;20064;-73
2023/08/26 00:34:44;;;;;;;9.50;6.07;;;;;;;;;;5018141;28;20037;-74
2023/08/26 00:37:11;;;;;;;9.63;6.57;;;;;;;;;;5023342;28;20041;-73
2023/08/26 00:39:37;;;;;;;14.02;8.20;;;;;;;;;;5002446;28;20049;-74
2023/08/26 00:42:02;;;;;;;11.75;8.05;;;;;;;;;;5022199;28;20029;-74
2023/08/26 00:44:28;;;;;;;12.80;8.75;;;;;;;;;;5019601;28;20062;-74
2023/08/26 00:46:54;;;;;;;18.17;9.70;;;;;;;;;;5022012;28;20112;-74
2023/08/26 00:49:20;;;;;;;14.10;9.45;;;;;;;;;;5019857;28;20553;-74
2023/08/26 00:51:45;;;;;;;13.20;9.55;;;;;;;;;;5021473;28;20073;-74
2023/08/26 00:54:11;;;;;;;14.73;9.23;;;;;;;;;;5021019;28;20056;-74
2023/08/26 00:56:36;;;;;;;10.63;8.80;;;;;;;;;;5021610;28;20043;-74
2023/08/26 00:59:02;;;;;;;13.02;8.20;;;;;;;;;;5022395;28;20475;-74
2023/08/26 01:01:29;;;;;;;11.88;8.60;;;;;;;;;;5013081;28;20136;-74
2023/08/26 01:03:54;;;;;;;18.60;8.00;;;;;;;;;;5016776;28;20128;-74
2023/08/26 01:06:20;;;;;;;11.45;7.95;;;;;;;;;;5021911;28;20081;-73
2023/08/26 01:08:45;;;;;;;11.63;8.35;;;;;;;;;;5020386;28;20026;-73
2023/08/26 01:11:35;;;;;;;10.68;6.70;;;;;;;;;;5022568;28;20065;-74
2023/08/26 01:14:22;;;;;;;11.90;7.80;;;;;;;;;;5018071;28;20275;-74
2023/08/26 01:16:48;;;;;;;9.40;7.85;;;;;;;;;;5021452;28;20080;-74
2023/08/26 01:19:28;;;;;;;11.95;7.50;;;;;;;;;;5019237;28;20034;-74
2023/08/26 01:21:58;;;;;;;9.13;6.63;;;;;;;;;;5022081;28;20061;-74
2023/08/26 01:24:25;;;;;;;10.55;7.78;;;;;;;;;;5018566;28;20675;-74
2023/08/26 01:26:52;;;;;;;9.32;6.70;;;;;;;;;;5021730;28;20241;-74
2023/08/26 01:29:17;;;;;;;7.10;5.65;;;;;;;;;;5015552;28;20041;-74
2023/08/26 01:31:45;;;;;;;5.32;3.90;;;;;;;;;;5022991;28;20033;-74
2023/08/26 01:34:20;;;;;;;5.22;3.80;;;;;;;;;;5018982;28;20042;-74
2023/08/26 01:36:46;;;;;;;6.68;3.65;;;;;;;;;;5002595;28;20129;-75
2023/08/26 01:39:14;;;;;;;6.95;3.85;;;;;;;;;;5018279;28;20070;-74
2023/08/26 01:41:45;;;;;;;4.45;3.60;;;;;;;;;;5001442;28;20289;-74
2023/08/26 01:44:11;;;;;;;3.85;3.40;;;;;;;;;;5023321;28;20047;-75
2023/08/26 01:46:37;;;;;;;3.58;3.28;;;;;;;;;;5031488;28;20038;-75
2023/08/26 01:49:03;;;;;;;4.63;3.33;;;;;;;;;;5019075;28;20380;-75
2023/08/26 01:51:28;;;;;;;3.42;3.13;;;;;;;;;;5023555;28;20089;-75
2023/08/26 01:53:54;;;;;;;6.43;4.57;;;;;;;;;;5022813;28;20032;-75
2023/08/26 01:56:19;;;;;;;9.52;4.80;;;;;;;;;;5024438;28;20061;-74
2023/08/26 01:58:44;;;;;;;8.80;4.85;;;;;;;;;;5002962;28;20087;-74
2023/08/26 02:01:10;;;;;;;7.22;5.53;;;;;;;;;;5021076;28;20122;-74
2023/08/26 02:03:35;;;;;;;14.80;6.93;;;;;;;;;;5021007;28;20046;-74
2023/08/26 02:06:00;;;;;;;11.40;6.65;;;;;;;;;;5005649;28;20470;-74
2023/08/26 02:08:26;;;;;;;8.32;7.13;;;;;;;;;;5022448;28;20037;-74
2023/08/26 02:10:55;;;;;;;9.60;7.85;;;;;;;;;;5023020;28;20040;-74
2023/08/26 02:13:21;;;;;;;11.48;7.07;;;;;;;;;;5022046;28;20600;-74
2023/08/26 02:15:46;;;;;;;11.35;7.25;;;;;;;;;;5024420;28;20121;-75
2023/08/26 02:18:12;;;;;;;14.88;8.15;;;;;;;;;;5010858;28;20052;-74
2023/08/26 02:20:40;;;;;;;9.73;7.10;;;;;;;;;;5020755;28;20086;-74
2023/08/26 02:23:05;;;;;;;9.43;7.00;;;;;;;;;;5004829;28;20042;-74
2023/08/26 02:25:31;;;;;;;10.98;7.05;;;;;;;;;;5023359;28;20037;-74
2023/08/26 02:27:56;;;;;;;13.85;7.55;;;;;;;;;;5024079;28;20038;-74
2023/08/26 02:30:21;;;;;;;26.42;6.88;;;;;;;;;;5023720;28;20395;-74
2023/08/26 02:32:47;;;;;;;9.23;6.80;;;;;;;;;;5024319;28;20040;-74
2023/08/26 02:35:12;;;;;;;8.02;5.93;;;;;;;;;;5018375;28;20034;-74
2023/08/26 02:37:37;;;;;;;10.38;5.90;;;;;;;;;;5023056;28;20037;-74
2023/08/26 02:40:05;;;;;;;8.40;6.22;;;;;;;;;;5004810;28;20084;-74
2023/08/26 02:42:32;;;;;;;11.43;6.43;;;;;;;;;;5024006;28;20115;-74
2023/08/26 02:44:57;;;;;;;9.30;5.55;;;;;;;;;;5023260;28;20065;-75
2023/08/26 02:47:23;;;;;;;8.85;6.13;;;;;;;;;;5021732;28;20068;-74
2023/08/26 02:49:48;;;;;;;8.18;6.18;;;;;;;;;;5024015;28;20061;-74
2023/08/26 02:52:13;;;;;;;9.48;6.20;;;;;;;;;;5021552;28;20075;-75
2023/08/26 02:54:38;;;;;;;7.45;5.90;;;;;;;;;;5004485;28;20039;-74
2023/08/26 02:57:04;;;;;;;15.05;7.22;;;;;;;;;;5018456;28;20025;-74
2023/08/26 02:59:29;;;;;;;10.30;6.10;;;;;;;;;;5023614;28;20086;-74
2023/08/26 03:02:01;;;;;;;10.80;7.00;;;;;;;;;;5002867;28;20086;-74
2023/08/26 03:04:26;;;;;;;8.82;5.65;;;;;;;;;;5021034;28;20034;-75
2023/08/26 03:06:51;;;;;;;12.43;6.38;;;;;;;;;;5021663;28;20053;-74
2023/08/26 03:09:16;;;;;;;8.55;4.90;;;;;;;;;;5024906;28;20386;-74
2023/08/26 03:11:42;;;;;;;9.75;5.10;;;;;;;;;;5022455;28;20152;-74
2023/08/26 03:14:07;;;;;;;7.35;4.63;;;;;;;;;;5021973;28;20563;-74
2023/08/26 03:16:32;;;;;;;5.75;3.78;;;;;;;;;;5018108;28;20062;-74
2023/08/26 03:18:58;;;;;;;5.18;3.95;;;;;;;;;;5023992;28;20036;-74
2023/08/26 03:21:24;;;;;;;6.65;4.18;;;;;;;;;;5019501;28;20383;-74
2023/08/26 03:23:49;;;;;;;6.03;4.32;;;;;;;;;;5022412;28;20117;-74
2023/08/26 03:26:15;;;;;;;6.88;4.22;;;;;;;;;;5020666;28;20473;-75
2023/08/26 03:28:40;;;;;;;4.82;4.13;;;;;;;;;;5022353;28;20048;-74
2023/08/26 03:31:05;;;;;;;4.78;4.20;;;;;;;;;;5022062;28;20503;-75
2023/08/26 03:33:31;;;;;;;5.90;3.75;;;;;;;;;;5023914;28;20034;-74
2023/08/26 03:35:56;;;;;;;7.30;3.95;;;;;;;;;;5022172;28;20027;-74
2023/08/26 03:38:22;;;;;;;7.80;3.55;;;;;;;;;;5019148;28;20527;-74
2023/08/26 03:40:47;;;;;;;7.45;3.78;;;;;;;;;;5023905;28;20056;-74
2023/08/26 03:43:12;;;;;;;4.05;3.55;;;;;;;;;;5018133;28;20072;-74
2023/08/26 03:45:39;;;;;;;4.03;3.63;;;;;;;;;;5019769;28;20046;-74
2023/08/26 03:48:04;;;;;;;6.28;2.85;;;;;;;;;;5021596;28;20029;-74
2023/08/26 03:50:30;;;;;;;4.50;3.17;;;;;;;;;;5021010;28;20033;-74
2023/08/26 03:52:55;;;;;;;6.78;3.47;;;;;;;;;;5020581;28;20037;-74
2023/08/26 03:55:20;;;;;;;12.73;3.58;;;;;;;;;;5016542;28;20026;-74
2023/08/26 03:57:46;;;;;;;4.35;3.33;;;;;;;;;;5016308;28;20037;-74
2023/08/26 04:00:12;;;;;;;6.43;3.28;;;;;;;;;;5009000;28;20041;-74
2023/08/26 04:02:37;;;;;;;4.70;3.33;;;;;;;;;;5019456;28;20037;-74
2023/08/26 04:05:03;;;;;;;4.40;3.67;;;;;;;;;;5013390;28;20052;-74
2023/08/26 04:07:29;;;;;;;5.72;3.78;;;;;;;;;;5010289;28;20034;-74
2023/08/26 04:09:54;;;;;;;5.88;3.78;;;;;;;;;;5019718;28;20085;-74
2023/08/26 04:12:20;;;;;;;8.05;3.60;;;;;;;;;;5019274;28;20048;-75
2023/08/26 04:14:45;;;;;;;5.68;4.07;;;;;;;;;;5015195;28;20527;-74
2023/08/26 04:17:12;;;;;;;4.25;3.55;;;;;;;;;;5014095;28;20477;-75
2023/08/26 04:19:37;;;;;;;10.40;4.30;;;;;;;;;;5020656;28;20038;-74
2023/08/26 04:22:03;;;;;;;6.05;4.50;;;;;;;;;;5023858;28;20402;-75
2023/08/26 04:24:31;;;;;;;6.35;4.45;;;;;;;;;;5000399;28;20046;-75
2023/08/26 04:26:56;;;;;;;6.28;4.38;;;;;;;;;;5022482;28;20017;-75
2023/08/26 04:29:21;;;;;;;8.70;5.38;;;;;;;;;;5016877;28;20030;-74
2023/08/26 04:31:47;;;;;;;7.28;5.03;;;;;;;;;;5017461;28;20040;-74
2023/08/26 04:34:12;;;;;;;8.73;5.07;;;;;;;;;;5023155;28;20575;-75
2023/08/26 04:36:37;;;;;;;9.82;5.50;;;;;;;;;;5018527;28;20496;-74
2023/08/26 04:39:10;;;;;;;6.20;5.05;;;;;;;;;;5018914;28;20034;-74
2023/08/26 04:41:37;;;;;;;7.53;5.15;;;;;;;;;;5026144;28;20124;-74
2023/08/26 04:44:03;;;;;;;9.68;6.18;;;;;;;;;;5018156;28;20037;-74
2023/08/26 04:46:29;;;;;;;9.00;6.25;;;;;;;;;;5017739;28;20055;-74
2023/08/26 04:48:54;;;;;;;9.35;6.13;;;;;;;;;;5014835;28;20037;-75
2023/08/26 04:51:19;;;;;;;13.73;7.07;;;;;;;;;;5027853;28;20035;-74
2023/08/26 04:53:45;;;;;;;10.07;6.50;;;;;;;;;;5004500;28;20078;-74
2023/08/26 04:56:10;;;;;;;8.13;6.20;;;;;;;;;;5021470;28;20046;-74
2023/08/26 04:58:37;;;;;;;7.03;5.07;;;;;;;;;;5001475;28;20029;-74
2023/08/26 05:01:02;;;;;;;9.18;4.88;;;;;;;;;;5003112;28;20036;-74
2023/08/26 05:03:28;;;;;;;6.05;4.75;;;;;;;;;;5019366;28;20109;-74
2023/08/26 05:05:53;;;;;;;14.85;5.80;;;;;;;;;;5018844;28;20471;-75
2023/08/26 05:08:18;;;;;;;7.90;5.93;;;;;;;;;;5014877;28;20042;-74
2023/08/26 05:10:44;;;;;;;8.00;5.43;;;;;;;;;;5021817;28;20100;-74
2023/08/26 05:13:09;;;;;;;6.63;5.32;;;;;;;;;;5021491;28;20065;-74
2023/08/26 05:15:34;;;;;;;7.72;5.13;;;;;;;;;;5035821;28;20033;-74
2023/08/26 05:18:00;;;;;;;9.43;5.68;;;;;;;;;;5027192;28;20023;-74
2023/08/26 05:20:25;;;;;;;5.38;4.88;;;;;;;;;;5027832;28;20124;-74
2023/08/26 05:22:50;;;;;;;7.55;4.70;;;;;;;;;;5023700;28;20112;-74
2023/08/26 05:25:15;;;;;;;12.20;6.10;;;;;;;;;;5023714;28;20491;-74
2023/08/26 05:27:41;;;;;;;14.25;6.13;;;;;;;;;;5022737;28;20083;-73
2023/08/26 05:30:07;;;;;;;6.40;5.40;;;;;;;;;;5023015;28;20387;-73
2023/08/26 05:34:57;;;;;;;7.28;4.47;;;;;;;;;;5027126;22;20492;-77
2023/08/26 05:37:23;;;;;;;7.45;4.45;;;;;;;;;;5010803;28;20034;-77
2023/08/26 05:39:48;;;;;;;4.93;4.40;;;;;;;;;;5011501;28;20395;-77
2023/08/26 05:42:13;;;;;;;10.70;4.57;;;;;;;;;;5011618;28;20014;-76
2023/08/26 05:44:39;;;;;;;6.25;4.50;;;;;;;;;;5008024;28;20239;-77
2023/08/26 05:47:05;;;;;;;5.53;4.22;;;;;;;;;;5017904;28;20046;-77
2023/08/26 05:49:30;;;;;;;5.65;3.67;;;;;;;;;;5011204;28;20151;-77
2023/08/26 05:51:55;;;;;;;6.68;4.15;;;;;;;;;;5073526;28;20034;-77
2023/08/26 05:54:21;;;;;;;5.03;4.18;;;;;;;;;;5003308;28;20026;-77
2023/08/26 05:56:46;;;;;;;5.80;3.58;;;;;;;;;;5075922;28;20554;-77
2023/08/26 05:59:12;;;;;;;8.25;3.67;;;;;;;;;;5008082;28;20491;-77
2023/08/26 06:01:37;;;;;;;5.75;3.53;;;;;;;;;;5004621;28;20059;-77
2023/08/26 06:04:03;;;;;;;4.00;3.60;;;;;;;;;;5072909;28;20087;-78
2023/08/26 06:06:29;;;;;;;5.22;3.70;;;;;;;;;;5003123;28;20116;-78
2023/08/26 06:08:54;;;;;;;6.45;3.80;;;;;;;;;;5002895;28;20025;-78
2023/08/26 06:11:19;;;;;;;5.30;3.60;;;;;;;;;;4999250;28;20462;-78
2023/08/26 06:13:45;;;;;;;7.57;3.70;;;;;;;;;;5004421;28;20056;-78
2023/08/26 06:16:10;;;;;;;7.75;3.70;;;;;;;;;;5005305;28;20186;-78
2023/08/26 06:18:36;;;;;;;4.85;3.78;;;;;;;;;;4999379;28;20034;-77
2023/08/26 06:21:01;;;;;;;5.40;3.60;;;;;;;;;;5070626;28;20526;-78
2023/08/26 06:23:26;;;;;;;11.45;3.83;;;;;;;;;;5003039;28;20046;-77
2023/08/26 06:25:56;;;;;;;3.60;3.30;;;;;;;;;;5015387;28;20028;-77
2023/08/26 06:28:23;;;;;;;3.97;3.53;;;;;;;;;;5063320;28;20031;-76
2023/08/26 06:30:48;;;;;;;8.50;3.70;;;;;;;;;;5016663;28;20394;-77
2023/08/26 06:33:14;;;;;;;5.05;3.35;;;;;;;;;;4996873;28;20037;-76
2023/08/26 06:35:39;;;;;;;6.80;3.60;;;;;;;;;;5002823;28;20030;-78
2023/08/26 06:38:06;;;;;;;6.18;3.67;;;;;;;;;;5001354;28;20495;-78
2023/08/26 06:40:31;;;;;;;11.05;3.38;;;;;;;;;;5005312;28;20062;-77
2023/08/26 06:42:57;;;;;;;4.30;3.30;;;;;;;;;;5069138;28;20447;-76
2023/08/26 06:45:23;;;;;;;4.47;3.25;;;;;;;;;;5000666;28;20204;-77
2023/08/26 06:47:48;;;;;;;4.57;3.60;;;;;;;;;;5068341;28;20107;-78
2023/08/26 06:50:14;;;;;;;4.55;3.17;;;;;;;;;;5006505;28;20029;-77
2023/08/26 06:52:39;;;;;;;4.30;3.22;;;;;;;;;;5000432;28;20419;-76
2023/08/26 06:55:06;;;;;;;5.75;3.75;;;;;;;;;;5003698;28;20129;-78
2023/08/26 06:57:31;;;;;;;6.88;3.15;;;;;;;;;;4998619;28;20045;-77
2023/08/26 06:59:57;;;;;;;9.00;2.90;;;;;;;;;;4999301;28;20275;-76
2023/08/26 07:02:22;;;;;;;6.45;3.30;;;;;;;;;;5003547;28;20035;-77
2023/08/26 07:04:48;;;;;;;5.57;3.00;;;;;;;;;;5002698;28;20079;-77
2023/08/26 07:07:13;;;;;;;5.82;3.28;;;;;;;;;;5002238;28;20092;-78
2023/08/26 07:09:38;;;;;;;3.53;3.20;;;;;;;;;;4997515;28;20056;-77
2023/08/26 07:12:04;;;;;;;5.57;3.00;;;;;;;;;;5066061;28;20488;-78
2023/08/26 07:14:29;;;;;;;5.40;3.03;;;;;;;;;;5003069;28;20029;-77
2023/08/26 07:16:54;;;;;;;3.42;2.90;;;;;;;;;;5010088;28;20033;-78
2023/08/26 07:19:20;;;;;;;6.95;3.47;;;;;;;;;;4999114;28;20038;-77
2023/08/26 07:21:46;;;;;;;4.60;3.00;;;;;;;;;;5003456;28;20175;-77
2023/08/26 07:24:11;;;;;;;5.72;3.40;;;;;;;;;;5061630;28;20052;-77
2023/08/26 07:26:37;;;;;;;7.55;3.70;;;;;;;;;;5060039;28;20103;-76
2023/08/26 07:29:02;;;;;;;3.58;3.00;;;;;;;;;;4963063;28;20349;-78
2023/08/26 07:31:27;;;;;;;3.80;3.20;;;;;;;;;;5002961;28;20038;-76
2023/08/26 07:33:53;;;;;;;9.23;3.00;;;;;;;;;;5058992;28;20363;-77
2023/08/26 07:36:18;;;;;;;4.00;3.20;;;;;;;;;;5071620;28;20090;-76
2023/08/26 07:38:44;;;;;;;3.90;3.47;;;;;;;;;;5005234;28;20368;-76
2023/08/26 07:41:09;;;;;;;5.72;3.25;;;;;;;;;;4993824;28;20046;-77
2023/08/26 07:43:37;;;;;;;3.50;3.15;;;;;;;;;;5001361;28;20037;-76
2023/08/26 07:46:02;;;;;;;4.05;3.30;;;;;;;;;;4997042;28;20062;-77
2023/08/26 07:48:28;;;;;;;5.50;3.40;;;;;;;;;;4993439;28;20053;-77
2023/08/26 07:50:53;;;;;;;5.05;3.15;;;;;;;;;;4999071;28;20026;-77
2023/08/26 07:53:18;;;;;;;4.03;2.95;;;;;;;;;;4997305;28;20050;-77
2023/08/26 07:55:44;;;;;;;6.22;2.90;;;;;;;;;;5057818;28;20037;-77
2023/08/26 07:58:09;;;;;;;5.95;3.63;;;;;;;;;;5005942;28;20551;-76
2023/08/26 08:00:34;;;;;;;3.33;3.08;;;;;;;;;;4997619;28;20114;-77
2023/08/26 08:02:59;;;;;;;4.65;2.83;;;;;;;;;;5001102;28;20068;-77
2023/08/26 08:05:25;;;;;;;5.60;3.33;;;;;;;;;;5002371;28;20035;-77
2023/08/26 08:07:50;;;;;;;4.55;3.35;;;;;;;;;;5057024;28;20045;-77
2023/08/26 08:10:15;;;;;;;3.85;3.33;;;;;;;;;;4992462;28;20037;-77
2023/08/26 08:12:41;;;;;;;3.95;3.17;;;;;;;;;;5063505;28;20034;-77
2023/08/26 08:15:07;;;;;;;7.68;3.53;;;;;;;;;;4995908;28;20946;-77
2023/08/26 08:17:32;;;;;;;8.85;3.95;;;;;;;;;;4992981;28;20041;-77
2023/08/26 08:19:58;;;;;;;6.95;3.60;;;;;;;;;;4990830;28;20038;-77
2023/08/26 08:22:35;;;;;;;5.10;3.92;;;;;;;;;;4993675;28;20038;-77
2023/08/26 08:25:02;;;;;;;8.10;3.92;;;;;;;;;;5059715;28;20042;-77
2023/08/26 08:27:27;;;;;;;5.38;3.85;;;;;;;;;;4996538;28;20921;-77
2023/08/26 08:29:53;;;;;;;7.13;3.67;;;;;;;;;;4992009;28;20400;-77
2023/08/26 08:32:18;;;;;;;3.80;3.22;;;;;;;;;;4988925;28;20030;-76
2023/08/26 08:34:43;;;;;;;5.40;3.80;;;;;;;;;;4983817;28;20847;-77
2023/08/26 08:37:08;;;;;;;7.15;3.97;;;;;;;;;;4986999;28;20056;-77
2023/08/26 08:39:36;;;;;;;5.60;3.65;;;;;;;;;;4987604;28;20726;-77
2023/08/26 08:42:02;;;;;;;7.40;4.38;;;;;;;;;;4994362;28;20144;-77
2023/08/26 08:44:32;;;;;;;7.88;4.00;;;;;;;;;;5058748;28;20047;-77
2023/08/26 08:46:58;;;;;;;7.10;3.88;;;;;;;;;;4985202;28;20050;-76
2023/08/26 08:49:23;;;;;;;5.93;3.67;;;;;;;;;;5048052;28;20382;-76
2023/08/26 08:51:49;;;;;;;6.50;3.42;;;;;;;;;;4990184;28;20038;-76
2023/08/26 08:54:15;;;;;;;5.30;3.75;;;;;;;;;;4998469;28;20196;-76
2023/08/26 08:56:42;;;;;;;7.82;3.78;;;;;;;;;;4997236;28;20166;-77
2023/08/26 08:59:11;;;;;;;6.05;3.55;;;;;;;;;;4999179;28;20030;-77
2023/08/26 09:01:36;;;;;;;4.32;3.40;;;;;;;;;;4993368;28;20040;-77
2023/08/26 09:04:05;;;;;;;6.53;3.28;;;;;;;;;;5060211;28;20058;-77
2023/08/26 09:06:30;;;;;;;3.55;2.80;;;;;;;;;;4995331;28;20044;-77
2023/08/26 09:08:59;;;;;;;6.35;2.95;;;;;;;;;;4997395;28;20466;-76
2023/08/26 09:11:27;;;;;;;5.57;3.47;;;;;;;;;;4991492;28;20439;-76
2023/08/26 09:13:52;;;;;;;5.43;3.00;;;;;;;;;;5056504;28;20090;-76
2023/08/26 09:16:27;;;;;;;5.70;2.97;;;;;;;;;;5000031;28;20496;-76
2023/08/26 09:18:56;;;;;;;4.25;2.83;;;;;;;;;;4992224;28;20487;-76
2023/08/26 09:21:21;;;;;;;3.72;3.00;;;;;;;;;;4990394;28;20476;-76
2023/08/26 09:23:49;;;;;;;5.50;2.90;;;;;;;;;;5054655;28;20092;-76
2023/08/26 09:26:16;;;;;;;7.05;3.30;;;;;;;;;;4994909;28;20056;-76
2023/08/26 09:28:48;;;;;;;4.00;3.15;;;;;;;;;;4988991;28;20412;-76
2023/08/26 09:31:14;;;;;;;5.60;3.70;;;;;;;;;;4981299;28;20062;-76
2023/08/26 09:33:39;;;;;;;6.47;2.75;;;;;;;;;;4995768;28;20475;-76
2023/08/26 09:36:05;;;;;;;5.93;2.92;;;;;;;;;;4994523;28;20057;-76
2023/08/26 09:38:44;;;;;;;4.07;3.10;;;;;;;;;;4994041;28;20061;-76
2023/08/26 09:41:10;;;;;;;6.50;3.72;;;;;;;;;;5000728;28;20034;-76
2023/08/26 09:43:36;;;;;;;4.50;2.72;;;;;;;;;;5002033;28;20053;-76
2023/08/26 09:46:03;;;;;;;5.57;2.80;;;;;;;;;;5000398;28;20537;-76
2023/08/26 09:48:28;;;;;;;4.75;3.08;;;;;;;;;;4995243;28;20121;-76
2023/08/26 09:50:53;;;;;;;7.63;3.30;;;;;;;;;;4991794;28;20165;-76
2023/08/26 09:53:33;;;;;;;9.63;3.10;;;;;;;;;;5066455;28;20603;-76
2023/08/26 09:55:58;;;;;;;5.32;3.50;;;;;;;;;;4997854;28;20092;-76
2023/08/26 09:58:25;;;;;;;7.82;4.18;;;;;;;;;;4996130;28;20496;-76
2023/08/26 10:00:53;;;;;;;4.68;4.15;;;;;;;;;;5000224;28;20062;-76
2023/08/26 10:03:22;;;;;;;5.68;4.05;;;;;;;;;;4994600;28;20022;-76
2023/08/26 10:05:50;;;;;;;4.63;3.53;;;;;;;;;;5002983;28;20033;-76
2023/08/26 10:08:18;;;;;;;7.72;3.97;;;;;;;;;;5004744;28;20048;-76
2023/08/26 10:10:53;;;;;;;5.85;3.80;;;;;;;;;;5010798;28;20030;-76
2023/08/26 10:13:25;;;;;;;5.10;3.33;;;;;;;;;;4994808;28;20500;-76
2023/08/26 10:15:52;;;;;;;3.20;3.00;;;;;;;;;;5067295;28;20041;-76
2023/08/26 10:18:41;;;;;;;5.70;3.10;;;;;;;;;;5057438;28;20604;-76
2023/08/26 10:21:07;;;;;;;5.47;3.20;;;;;;;;;;4993206;28;20029;-76
2023/08/26 10:23:33;;;;;;;5.30;3.40;;;;;;;;;;5065697;28;20025;-75
2023/08/26 10:25:59;;;;;;;5.50;3.67;;;;;;;;;;5007380;28;20034;-76
2023/08/26 10:28:25;;;;;;;6.05;3.40;;;;;;;;;;5007149;28;20130;-76
2023/08/26 10:30:53;;;;;;;5.53;4.13;;;;;;;;;;5067515;28;20048;-76
2023/08/26 10:33:19;;;;;;;5.78;3.88;;;;;;;;;;4995913;28;20427;-76
2023/08/26 10:35:57;;;;;;;9.40;4.10;;;;;;;;;;5003509;28;20026;-76
2023/08/26 10:38:22;;;;;;;7.53;3.60;;;;;;;;;;5010121;28;20840;-76
2023/08/26 10:40:48;;;;;;;6.78;4.22;;;;;;;;;;5001798;28;20057;-76
2023/08/26 10:43:13;;;;;;;8.18;3.90;;;;;;;;;;5001303;28;20038;-76
2023/08/26 10:45:46;;;;;;;3.60;2.90;;;;;;;;;;4987984;28;20082;-75
2023/08/26 10:48:12;;;;;;;4.13;3.35;;;;;;;;;;4992441;28;20034;-76
2023/08/26 10:50:37;;;;;;;4.75;3.67;;;;;;;;;;4990922;28;20063;-76
2023/08/26 10:53:23;;;;;;;7.22;3.63;;;;;;;;;;4986019;28;20041;-76
2023/08/26 10:55:52;;;;;;;8.32;3.72;;;;;;;;;;4984654;28;20052;-76
2023/08/26 10:58:19;;;;;;;4.30;3.60;;;;;;;;;;5049433;28;20027;-76
2023/08/26 11:00:50;;;;;;;7.13;3.60;;;;;;;;;;4980389;28;20055;-76
2023/08/26 11:03:22;;;;;;;6.97;4.00;;;;;;;;;;4984491;28;20022;-76
2023/08/26 11:06:00;;;;;;;9.82;4.28;;;;;;;;;;4984516;28;20057;-76
2023/08/26 11:08:26;;;;;;;6.13;3.60;;;;;;;;;;4983191;28;20109;-76
2023/08/26 11:10:51;;;;;;;6.63;3.90;;;;;;;;;;4994999;28;20061;-76
2023/08/26 11:13:16;;;;;;;8.05;4.10;;;;;;;;;;4993818;28;20045;-76
2023/08/26 11:15:43;;;;;;;6.32;3.67;;;;;;;;;;4986236;28;20688;-76
2023/08/26 11:18:10;;;;;;;6.32;3.80;;;;;;;;;;5063269;28;20455;-76
2023/08/26 11:20:36;;;;;;;6.10;3.20;;;;;;;;;;5060572;28;20450;-76
2023/08/26 11:23:03;;;;;;;6.90;3.40;;;;;;;;;;5052100;28;20515;-76
2023/08/26 11:25:29;;;;;;;6.18;4.28;;;;;;;;;;5061526;28;20385;-76
2023/08/26 11:27:55;;;;;;;5.68;3.80;;;;;;;;;;4988963;28;20091;-76
2023/08/26 11:30:20;;;;;;;4.63;3.65;;;;;;;;;;4989115;28;20389;-76
2023/08/26 11:32:49;;;;;;;8.55;4.15;;;;;;;;;;4987799;28;20109;-76
2023/08/26 11:35:15;;;;;;;7.40;3.70;;;;;;;;;;4997171;28;20120;-75
2023/08/26 11:37:42;;;;;;;7.45;3.53;;;;;;;;;;4996949;28;20125;-76
2023/08/26 11:40:08;;;;;;;6.75;3.67;;;;;;;;;;4996197;28;20087;-76
2023/08/26 11:42:34;;;;;;;4.45;3.65;;;;;;;;;;4994418;28;20108;-76
2023/08/26 11:44:59;;;;;;;5.22;3.55;;;;;;;;;;5062983;28;20387;-76
2023/08/26 11:47:25;;;;;;;4.85;3.40;;;;;;;;;;5000509;28;20087;-75
2023/08/26 11:49:57;;;;;;;4.45;3.25;;;;;;;;;;4999665;28;20037;-75
2023/08/26 11:52:35;;;;;;;5.43;3.15;;;;;;;;;;4995824;28;20050;-76
2023/08/26 11:55:09;;;;;;;4.03;3.50;;;;;;;;;;5056010;28;20128;-76
2023/08/26 11:57:37;;;;;;;5.75;3.65;;;;;;;;;;4989034;28;20095;-75
2023/08/26 12:00:13;;;;;;;8.00;3.53;;;;;;;;;;4991816;28;20041;-76
2023/08/26 12:02:44;;;;;;;4.32;3.33;;;;;;;;;;4992201;28;20105;-76
2023/08/26 12:05:10;;;;;;;9.55;3.35;;;;;;;;;;4990863;28;20030;-75
2023/08/26 12:07:42;;;;;;;4.57;3.58;;;;;;;;;;4997315;28;20446;-75
2023/08/26 12:10:11;;;;;;;6.70;3.60;;;;;;;;;;4989625;28;20538;-75
2023/08/26 12:12:37;;;;;;;5.20;3.08;;;;;;;;;;4992262;28;20668;-75
2023/08/26 12:15:07;;;;;;;6.70;3.35;;;;;;;;;;4988800;28;20100;-75
2023/08/26 12:18:01;;;;;;;6.50;3.75;;;;;;;;;;4991422;28;20045;-74
2023/08/26 12:20:28;;;;;;;3.72;3.30;;;;;;;;;;4986455;28;20038;-75
2023/08/26 12:23:02;;;;;;;6.45;3.28;;;;;;;;;;5053385;28;20054;-75
2023/08/26 12:25:32;;;;;;;6.40;3.05;;;;;;;;;;4986801;28;20030;-74
2023/08/26 12:28:14;;;;;;;10.68;3.45;;;;;;;;;;4985060;28;20123;-75
2023/08/26 12:30:42;;;;;;;12.82;4.15;;;;;;;;;;4987944;28;20038;-75
2023/08/26 12:33:08;;;;;;;6.90;3.58;;;;;;;;;;4989562;28;20088;-75
2023/08/26 12:35:34;;;;;;;4.15;3.30;;;;;;;;;;4989389;28;20064;-77
2023/08/26 12:38:02;;;;;;;5.05;3.50;;;;;;;;;;4989867;28;20066;-75
2023/08/26 12:40:36;;;;;;;4.35;3.80;;;;;;;;;;5002012;28;20376;-75
2023/08/26 12:43:04;;;;;;;5.40;3.65;;;;;;;;;;4998625;28;20034;-75
2023/08/26 12:45:33;;;;;;;3.58;3.20;;;;;;;;;;5063091;28;20082;-75
2023/08/26 12:47:59;;;;;;;4.18;3.03;;;;;;;;;;4997465;28;20053;-75
2023/08/26 12:50:26;;;;;;;8.07;3.88;;;;;;;;;;5069838;28;20046;-77
2023/08/26 12:52:51;;;;;;;4.88;3.42;;;;;;;;;;4998352;28;20030;-75
2023/08/26 12:55:17;;;;;;;3.38;3.08;;;;;;;;;;4997294;28;20416;-75
2023/08/26 12:57:43;;;;;;;9.98;3.08;;;;;;;;;;4996665;28;20083;-75
2023/08/26 13:00:09;;;;;;;5.35;3.30;;;;;;;;;;5001244;28;20038;-75
2023/08/26 13:02:39;;;;;;;5.70;3.22;;;;;;;;;;5002689;28;20414;-76
2023/08/26 13:05:06;;;;;;;7.20;3.90;;;;;;;;;;4998715;28;20364;-75
2023/08/26 13:07:31;;;;;;;4.15;3.30;;;;;;;;;;4998793;28;20039;-75
2023/08/26 13:09:57;;;;;;;4.80;3.78;;;;;;;;;;4998938;28;20384;-75
2023/08/26 13:12:22;;;;;;;3.35;2.90;;;;;;;;;;4999600;28;20047;-75
2023/08/26 13:14:47;;;;;;;4.68;3.42;;;;;;;;;;4998848;28;20087;-75
2023/08/26 13:17:12;;;;;;;6.00;3.55;;;;;;;;;;5001433;28;20042;-74
2023/08/26 13:19:38;;;;;;;6.40;3.22;;;;;;;;;;5000176;28;20580;-75
2023/08/26 13:22:03;;;;;;;5.78;3.70;;;;;;;;;;5008276;28;20034;-75
2023/08/26 13:24:28;;;;;;;5.47;3.70;;;;;;;;;;4998026;28;20393;-75
2023/08/26 13:26:54;;;;;;;5.25;3.60;;;;;;;;;;5066749;28;20037;-75
2023/08/26 13:29:19;;;;;;;6.68;4.05;;;;;;;;;;5067051;28;20034;-76
2023/08/26 13:31:44;;;;;;;8.63;3.80;;;;;;;;;;5002407;28;20030;-75
2023/08/26 13:34:10;;;;;;;6.70;4.00;;;;;;;;;;5004866;28;20453;-75
2023/08/26 13:36:37;;;;;;;6.95;4.43;;;;;;;;;;5000314;28;20059;-75
2023/08/26 13:39:03;;;;;;;6.80;4.35;;;;;;;;;;4998454;28;20026;-75
2023/08/26 13:41:29;;;;;;;6.47;4.35;;;;;;;;;;5004864;28;20026;-75
2023/08/26 13:43:54;;;;;;;6.53;5.00;;;;;;;;;;4997752;28;20073;-75
2023/08/26 13:46:19;;;;;;;7.55;5.00;;;;;;;;;;4995714;28;20046;-75
2023/08/26 13:48:45;;;;;;;9.98;5.40;;;;;;;;;;5004544;28;21059;-74
2023/08/26 13:51:10;;;;;;;10.23;5.85;;;;;;;;;;5004422;28;20025;-73
2023/08/26 13:53:36;;;;;;;3.97;1.60;;;;;;;;;;5001811;28;20034;-75
2023/08/26 13:56:01;;;;;;;9.15;1.50;;;;;;;;;;4989689;28;20420;-77
2023/08/26 13:58:26;;;;;;;5.10;1.70;;;;;;;;;;4991453;28;20099;-75
2023/08/26 14:00:58;;;;;;;3.10;1.38;;;;;;;;;;4990476;28;20033;-76
2023/08/26 14:03:25;;;;;;;2.60;1.30;;;;;;;;;;4993035;28;20062;-75
2023/08/26 14:05:53;;;;;;;2.58;1.10;;;;;;;;;;4990353;28;20031;-75
2023/08/26 14:08:18;;;;;;;14.77;1.20;;;;;;;;;;4990903;28;20063;-76
2023/08/26 14:10:44;;;;;;;23.88;2.42;;;;;;;;;;4987392;28;20073;-76
2023/08/26 14:13:10;;;;;;;6.45;1.77;;;;;;;;;;4994204;28;20049;-75
2023/08/26 14:15:42;;;;;;;4.65;1.70;;;;;;;;;;4993901;28;20038;-76
2023/08/26 14:18:08;;;;;;;7.32;1.92;;;;;;;;;;4994837;28;20072;-76
2023/08/26 14:20:34;;;;;;;5.45;1.85;;;;;;;;;;4994620;28;20578;-76
2023/08/26 14:22:59;;;;;;;4.13;1.52;;;;;;;;;;5003944;28;20050;-76
2023/08/26 14:25:24;;;;;;;3.85;1.63;;;;;;;;;;5002101;28;20091;-76
2023/08/26 14:27:50;;;;;;;3.67;1.83;;;;;;;;;;5001131;28;20037;-76
2023/08/26 14:30:15;;;;;;;6.60;1.95;;;;;;;;;;5062600;28;20074;-76
2023/08/26 14:32:40;;;;;;;5.10;1.70;;;;;;;;;;5003625;28;20536;-75
2023/08/26 14:35:06;;;;;;;3.35;1.80;;;;;;;;;;4993573;28;20038;-74
2023/08/26 14:37:31;;;;;;;3.22;1.80;;;;;;;;;;4985804;28;20034;-77
2023/08/26 14:39:57;;;;;;;12.75;1.83;;;;;;;;;;4993242;28;20045;-74